KTOI

Troy Municipal at N Kenneth Campbell Field Airport

Troy, Alabama, USA
KTOI 161739Z 1618/1718 VRB06KT P6SM SCT025 FM162000 VRB06KT P6SM VCTS BKN050CB FM170600 00000KT 4SM BR BKN250
Issued Valid From Valid To
Jul-16 @ 17:39 UTC
(2 hours ago)
Jul-16 @ 18:00 UTC
(2 hours ago)
Jul-17 @ 18:00 UTC
(in 22 hours)
Jul-16 @ 18:00 to Jul-16 @ 20:00
KTOI 161739Z 1618/1718 VRB06KT P6SM SCT025
Wind Visibility Clouds
Variable at 6 knots Greater than 6 miles
  • Scattered at 2,500' AGL
From Jul-16 @ 20:00 to Jul-17 @ 06:00
FM162000 VRB06KT P6SM VCTS BKN050CB
Wind Visibility Clouds Conditions
Variable at 6 knots Greater than 6 miles
  • Broken at 5,000' AGL
  • Area Thunderstorm
From Jul-17 @ 06:00 to Jul-17 @ 18:00
FM170600 00000KT 4SM BR BKN250
Visibility Clouds Conditions
4 miles
  • Broken at 25,000' AGL
  • Mist
KTOI 161739Z 1618/1718 VRB06KT P6SM SCT025 FM162000 VRB06KT P6SM VCTS BKN050CB FM170600 00000KT 4SM BR BKN250
Issued Jul-16 @ 17:39 UTC
(2 hours ago)
Valid From Jul-16 @ 18:00 UTC
(2 hours ago)
Valid To Jul-17 @ 18:00 UTC
(in 22 hours)
Jul-16 @ 18:00 - Jul-16 @ 20:00
Wind Visibility
Variable at 6 knots Greater than 6 miles
Clouds
  • Scattered at 2,500' AGL
From Jul-16 @ 20:00 - Jul-17 @ 06:00
Wind Visibility
Variable at 6 knots Greater than 6 miles
Clouds
  • Broken at 5,000' AGL
Conditions
  • Area Thunderstorm
From Jul-17 @ 06:00 - Jul-17 @ 18:00
Clouds
  • Broken at 25,000' AGL
Conditions
  • Mist